To NAV CANADA Home Page Login to a new session Search on AWWS site Feedback and Comments Disclaimer Vers la page française équivalente Tips FAQ What's new on the site To the Forecasts and Observations / NOTAM section To "File a Flight Plan" website Publications and other links Update of the User's profile FIC Telephone Numbers My Weather Data Folder Route Weather Data Regional Weather Data Local Weather Data To the Forecasts and Observations / NOTAM section
Request Generated 06/26/2017 at 22:35:36 UTC . Weather information available at that time is displayed.

METAR/TAF

HALIFAX/STANFIELD INTL/NS    (show WxCam)

METAR CYHZ 262200Z 02008KT 15SM FEW070 22/12 A2986 RMK ACC2 SLP112
DENSITY ALT 1500FT=
METAR CYHZ 262100Z 05005KT 15SM FEW076 23/13 A2985 RMK AC2 SLP109
DENSITY ALT 1600FT=
METAR CYHZ 262000Z 33008G15KT 210V350 15SM SCT065 23/14 A2985 RMK CU3
SLP111 DENSITY ALT 1600FT=

TAF CYHZ 262039Z 2621/2718 33008KT P6SM SCT060 TEMPO 2621/2624 P6SM
-SHRA BKN060
BECMG 2704/2706 23005KT
FM270600 23005KT P6SM FEW060
BECMG 2706/2708 19006KT
BECMG 2713/2715 17010KT
RMK NXT FCST BY 270000Z=
Your time UTC time
Weather data provided by Environment Canada and NAV CANADA